Time;durP1;ratioP1;P1;durP2;ratioP2;P2;SDS_P1;SDS_P2;PMS_P1;PMS_P2;Temp;Humidity;BMP_temperature;BMP_pressure;BME280_temperature;BME280_humidity;BME280_pressure;Samples;Min_cycle;Max_cycle;Signal;HPM_P1;HPM_P2
2023/08/19 00:00:55;;;;;;;8.05;3.10;;;;;;;20.95;100.00;100082.47;5139112;28;20057;-62
2023/08/19 00:03:22;;;;;;;3.03;2.83;;;;;;;20.84;100.00;100100.06;5139289;28;20094;-61
2023/08/19 00:05:48;;;;;;;5.65;3.03;;;;;;;20.68;100.00;100156.31;5139012;28;20134;-55
2023/08/19 00:08:13;;;;;;;4.57;3.38;;;;;;;20.60;100.00;100179.88;5139072;27;20321;-57
2023/08/19 00:10:40;;;;;;;5.15;3.50;;;;;;;20.64;100.00;100191.78;5138879;28;20134;-61
2023/08/19 00:13:07;;;;;;;4.20;3.90;;;;;;;20.51;100.00;100212.19;5139115;28;20047;-57
2023/08/19 00:15:33;;;;;;;4.75;3.00;;;;;;;20.48;100.00;100229.66;5138697;28;20383;-61
2023/08/19 00:18:00;;;;;;;6.28;3.60;;;;;;;20.45;100.00;100236.84;5139102;28;20069;-55
2023/08/19 00:20:28;;;;;;;5.53;3.88;;;;;;;20.45;100.00;100236.84;5138846;28;20058;-58
2023/08/19 00:22:54;;;;;;;9.48;3.70;;;;;;;20.51;100.00;100240.81;5138534;28;20409;-62
2023/08/19 00:25:20;;;;;;;7.05;3.47;;;;;;;20.61;100.00;100228.81;5138871;28;20104;-62
2023/08/19 00:27:46;;;;;;;5.30;3.63;;;;;;;20.66;100.00;100217.25;5138674;28;20416;-59
2023/08/19 00:30:13;;;;;;;4.57;4.18;;;;;;;20.57;100.00;100216.91;5138145;27;20086;-57
2023/08/19 00:32:40;;;;;;;5.57;3.50;;;;;;;20.56;100.00;100220.09;5138604;28;20107;-59
2023/08/19 00:35:06;;;;;;;6.47;3.53;;;;;;;20.64;100.00;100221.66;5138776;28;20043;-57
2023/08/19 00:37:34;;;;;;;5.68;3.92;;;;;;;20.59;100.00;100219.28;5138305;27;20130;-59
2023/08/19 00:40:00;;;;;;;5.07;3.72;;;;;;;20.67;100.00;100215.25;5138644;28;20434;-58
2023/08/19 00:42:26;;;;;;;7.68;3.75;;;;;;;20.70;100.00;100208.09;5138258;28;20078;-58
2023/08/19 00:44:52;;;;;;;4.35;3.95;;;;;;;20.54;100.00;100191.88;5138983;28;20065;-58
2023/08/19 00:47:20;;;;;;;4.93;3.85;;;;;;;20.48;100.00;100204.59;5138080;28;20054;-62
2023/08/19 00:49:46;;;;;;;4.63;3.83;;;;;;;20.47;100.00;100233.66;5138363;28;20427;-62
2023/08/19 00:52:12;;;;;;;4.10;3.70;;;;;;;20.49;100.00;100229.25;5138443;28;20062;-60
2023/08/19 00:54:37;;;;;;;3.97;3.67;;;;;;;20.56;100.00;100231.22;5138263;28;20047;-58
2023/08/19 00:57:04;;;;;;;4.30;3.88;;;;;;;20.53;100.00;100221.72;5138356;28;20359;-56
2023/08/19 00:59:30;;;;;;;4.25;3.83;;;;;;;20.36;100.00;100237.31;5138322;28;20138;-63
2023/08/19 01:01:56;;;;;;;4.47;3.92;;;;;;;20.25;100.00;100255.25;5138451;28;20058;-59
2023/08/19 01:04:23;;;;;;;4.20;3.85;;;;;;;20.10;100.00;100260.09;5138250;28;20095;-57
2023/08/19 01:06:58;;;;;;;4.15;3.83;;;;;;;20.15;100.00;100259.66;5138325;28;20055;-56
2023/08/19 01:09:34;;;;;;;4.47;3.78;;;;;;;20.22;100.00;100252.06;5137832;27;20051;-59
2023/08/19 01:12:10;;;;;;;5.13;4.30;;;;;;;20.16;100.00;100245.34;5138611;28;20142;-59
2023/08/19 01:14:44;;;;;;;4.47;3.97;;;;;;;20.17;100.00;100243.34;5138111;28;20047;-57
2023/08/19 01:17:14;;;;;;;4.65;4.25;;;;;;;20.17;100.00;100248.91;5137905;28;20055;-63
2023/08/19 01:19:41;;;;;;;4.63;4.10;;;;;;;20.28;100.00;100248.88;5138079;28;20145;-59
2023/08/19 01:22:10;;;;;;;4.63;4.05;;;;;;;20.28;100.00;100252.44;5137657;28;20416;-59
2023/08/19 01:24:38;;;;;;;5.18;4.03;;;;;;;20.21;100.00;100249.69;5137997;28;20076;-55
2023/08/19 01:27:04;;;;;;;6.82;4.25;;;;;;;20.08;100.00;100249.34;5137705;28;20043;-62
2023/08/19 01:29:31;;;;;;;6.03;4.00;;;;;;;20.14;100.00;100247.72;5138003;28;20373;-62
2023/08/19 01:31:57;;;;;;;5.75;4.40;;;;;;;19.96;100.00;100253.38;5137567;28;20043;-55
2023/08/19 01:34:24;;;;;;;5.97;4.25;;;;;;;20.12;100.00;100246.53;5138011;28;20051;-62
2023/08/19 01:36:54;;;;;;;10.15;4.50;;;;;;;20.09;100.00;100259.28;5137342;28;20072;-59
2023/08/19 01:39:22;;;;;;;4.97;4.20;;;;;;;20.17;100.00;100251.69;5137561;27;20051;-57
2023/08/19 01:41:50;;;;;;;4.47;4.05;;;;;;;20.11;100.00;100242.97;5136494;27;20061;-60
2023/08/19 01:44:16;;;;;;;5.45;4.20;;;;;;;20.15;100.00;100251.28;5137545;28;20051;-63
2023/08/19 01:46:42;;;;;;;5.72;4.00;;;;;;;20.23;100.00;100244.53;5137667;28;20047;-60
2023/08/19 01:49:08;;;;;;;7.97;3.85;;;;;;;20.14;100.00;100242.16;5137420;28;20137;-62
2023/08/19 01:51:34;;;;;;;5.30;4.03;;;;;;;20.10;100.00;100237.81;5137475;28;20413;-63
2023/08/19 01:54:00;;;;;;;5.13;4.18;;;;;;;20.18;100.00;100247.72;5137310;28;20061;-59
2023/08/19 01:56:26;;;;;;;4.05;3.70;;;;;;;19.98;100.00;100242.59;5137716;28;20047;-57
2023/08/19 01:58:54;;;;;;;6.15;3.83;;;;;;;20.06;100.00;100250.94;5137052;28;20070;-58
2023/08/19 02:01:20;;;;;;;5.43;3.75;;;;;;;19.96;100.00;100255.34;5137571;28;20055;-60
2023/08/19 02:03:46;;;;;;;4.18;3.78;;;;;;;19.89;100.00;100253.38;5137170;28;20055;-63
2023/08/19 02:06:12;;;;;;;4.55;4.22;;;;;;;20.03;100.00;100235.84;5137350;28;20086;-62
2023/08/19 02:08:37;;;;;;;4.82;3.83;;;;;;;19.86;100.00;100239.47;5137185;27;20055;-61
2023/08/19 02:11:03;;;;;;;3.50;3.20;;;;;;;19.51;100.00;100244.69;5136992;28;20142;-58
2023/08/19 02:13:29;;;;;;;3.65;3.35;;;;;;;20.06;100.00;100248.13;5137170;28;20172;-58
2023/08/19 02:15:56;;;;;;;5.32;3.63;;;;;;;20.04;100.00;100251.34;5137111;28;20111;-57
2023/08/19 02:18:22;;;;;;;4.40;3.67;;;;;;;20.14;100.00;100247.72;5137068;28;20075;-56
2023/08/19 02:20:48;;;;;;;4.07;3.67;;;;;;;19.79;100.00;100259.75;5137005;28;20130;-59
2023/08/19 02:23:14;;;;;;;5.10;4.60;;;;;;;19.82;100.00;100256.16;5137281;28;20416;-62
2023/08/19 02:25:40;;;;;;;4.50;4.05;;;;;;;19.49;100.00;100260.16;5137148;28;20051;-60
2023/08/19 02:28:06;;;;;;;3.90;3.60;;;;;;;19.81;100.00;100262.16;5137265;28;20057;-58
2023/08/19 02:30:32;;;;;;;5.00;3.95;;;;;;;19.75;100.00;100254.19;5136687;28;20052;-58
2023/08/19 02:33:04;;;;;;;5.70;4.70;;;;;;;19.79;100.00;100262.53;5137251;28;20067;-56
2023/08/19 02:35:30;;;;;;;7.32;4.15;;;;;;;19.79;100.00;100251.41;5136971;28;20307;-57
2023/08/19 02:37:56;;;;;;;5.47;4.07;;;;;;;19.87;100.00;100253.00;5136736;27;20043;-58
2023/08/19 02:40:22;;;;;;;6.80;3.90;;;;;;;19.77;100.00;100247.47;5137211;28;20047;-57
2023/08/19 02:42:48;;;;;;;4.22;3.80;;;;;;;19.71;100.00;100255.41;5136564;28;20421;-59
2023/08/19 02:45:14;;;;;;;5.97;4.57;;;;;;;19.72;100.00;100259.75;5137008;28;20057;-60
2023/08/19 02:47:40;;;;;;;5.03;4.07;;;;;;;19.74;100.00;100257.38;5136962;28;20061;-63
2023/08/19 02:50:08;;;;;;;6.47;4.00;;;;;;;19.74;100.00;100266.53;5136863;28;20134;-62
2023/08/19 02:52:34;;;;;;;4.32;3.60;;;;;;;19.91;100.00;100261.31;5137722;27;20440;-60
2023/08/19 02:55:00;;;;;;;4.72;4.28;;;;;;;19.88;100.00;100259.34;5140485;28;20138;-58
2023/08/19 02:57:26;;;;;;;5.47;4.05;;;;;;;19.89;100.00;100255.34;5139935;28;20146;-55
2023/08/19 02:59:54;;;;;;;8.40;4.05;;;;;;;19.83;100.00;100256.97;5140446;28;20058;-62
2023/08/19 03:02:20;;;;;;;6.60;3.70;;;;;;;19.84;100.00;100269.69;5139871;28;20134;-61
2023/08/19 03:04:46;;;;;;;3.95;3.55;;;;;;;19.47;100.00;100270.91;5140137;28;20097;-62
2023/08/19 03:07:13;;;;;;;7.55;3.75;;;;;;;19.93;100.00;100272.84;5140100;27;20160;-56
2023/08/19 03:09:42;;;;;;;4.95;3.63;;;;;;;19.82;100.00;100266.50;5140013;28;20424;-53
2023/08/19 03:12:08;;;;;;;5.78;4.90;;;;;;;19.51;100.00;100274.47;5140132;28;20196;-61
2023/08/19 03:14:34;;;;;;;9.45;4.53;;;;;;;19.61;100.00;100279.22;5140114;28;20053;-57
2023/08/19 03:17:00;;;;;;;4.22;3.83;;;;;;;19.82;100.00;100272.84;5139772;28;20055;-54
2023/08/19 03:19:26;;;;;;;5.47;3.90;;;;;;;19.58;100.00;100268.91;5139645;28;20193;-56
2023/08/19 03:21:52;;;;;;;6.00;4.22;;;;;;;19.65;100.00;100273.69;5140029;28;20409;-57
2023/08/19 03:24:19;;;;;;;4.75;3.83;;;;;;;19.41;100.00;100278.06;5139679;28;20111;-59
2023/08/19 03:26:45;;;;;;;4.90;4.38;;;;;;;19.72;100.00;100277.25;5140048;28;20047;-61
2023/08/19 03:29:10;;;;;;;6.32;3.92;;;;;;;19.69;100.00;100280.03;5139476;28;20055;-60
2023/08/19 03:31:36;;;;;;;8.10;4.07;;;;;;;19.95;100.00;100273.22;5139902;28;20051;-60
2023/08/19 03:34:02;;;;;;;5.55;4.22;;;;;;;20.02;100.00;100259.28;5139652;28;20057;-63
2023/08/19 03:36:28;;;;;;;6.63;4.45;;;;;;;20.35;100.00;100244.03;5139305;28;20083;-60
2023/08/19 03:38:54;;;;;;;5.32;4.00;;;;;;;21.03;100.00;100139.75;5139516;27;20143;-61
2023/08/19 03:41:21;;;;;;;5.93;3.70;;;;;;;21.45;100.00;99928.53;5139445;28;20047;-59
2023/08/19 03:43:46;;;;;;;4.38;3.75;;;;;;;21.70;100.00;99627.59;5139649;28;20188;-61
2023/08/19 03:46:12;;;;;;;5.97;3.88;;;;;;;22.23;100.00;99429.44;5139214;28;20050;-61
2023/08/19 03:48:38;;;;;;;6.47;4.03;;;;;;;22.31;100.00;99416.84;5139653;28;20051;-57
2023/08/19 03:51:04;;;;;;;6.28;3.72;;;;;;;22.69;100.00;99143.19;5139197;28;20412;-55
2023/08/19 03:53:30;;;;;;;8.48;4.18;;;;;;;22.78;100.00;99067.81;5139429;28;20050;-56
2023/08/19 03:55:56;;;;;;;4.25;3.42;;;;;;;22.87;100.00;99027.22;5139125;28;20051;-59
2023/08/19 03:58:23;;;;;;;9.70;3.80;;;;;;;23.19;100.00;98903.06;5139391;28;20401;-61
2023/08/19 04:00:48;;;;;;;5.65;3.90;;;;;;;23.60;100.00;98859.16;5138910;28;20129;-59
2023/08/19 04:03:15;;;;;;;6.70;4.00;;;;;;;23.56;100.00;98859.28;5138479;27;20332;-59
2023/08/19 04:05:40;;;;;;;4.30;3.72;;;;;;;23.27;100.00;98926.75;5138571;28;20047;-62
2023/08/19 04:08:06;;;;;;;5.07;3.63;;;;;;;23.24;100.00;98832.56;5139003;27;20101;-58
2023/08/19 04:10:32;;;;;;;7.13;3.92;;;;;;;24.04;100.00;98800.94;5138837;28;20192;-59
2023/08/19 04:12:58;;;;;;;9.80;3.50;;;;;;;24.34;100.00;98773.25;5138995;28;20131;-57
2023/08/19 04:15:25;;;;;;;4.00;3.58;;;;;;;23.78;100.00;98797.66;5139056;28;20107;-55
2023/08/19 04:17:51;;;;;;;6.53;4.47;;;;;;;23.67;100.00;98848.44;5138839;28;20163;-55
2023/08/19 04:20:17;;;;;;;5.22;4.00;;;;;;;24.01;100.00;98784.31;5139150;28;20165;-57
2023/08/19 04:22:44;;;;;;;5.50;3.95;;;;;;;24.46;100.00;98785.56;5138822;28;20421;-61
2023/08/19 04:25:10;;;;;;;4.82;3.50;;;;;;;24.61;100.00;98781.66;5138972;28;20058;-60
2023/08/19 04:27:36;;;;;;;5.32;3.30;;;;;;;24.34;100.00;98773.25;5138501;28;20049;-63
2023/08/19 04:30:03;;;;;;;4.07;3.42;;;;;;;23.75;100.00;98769.81;5138999;28;20047;-63
2023/08/19 04:32:30;;;;;;;3.97;3.30;;;;;;;25.04;100.00;98779.69;5138698;28;20324;-57
2023/08/19 04:34:56;;;;;;;6.57;3.30;;;;;;;25.35;100.00;98834.75;5138717;28;20058;-61
2023/08/19 04:37:22;;;;;;;4.30;3.80;;;;;;;25.11;100.00;98787.78;5138561;27;20443;-58
2023/08/19 04:39:48;;;;;;;6.40;4.03;;;;;;;25.14;100.00;98813.34;5138491;28;20092;-55
2023/08/19 04:42:14;;;;;;;7.90;4.80;;;;;;;25.71;100.00;98849.88;5138642;28;20047;-57
2023/08/19 04:44:40;;;;;;;7.60;4.55;;;;;;;26.24;100.00;98911.84;5138282;28;20464;-57
2023/08/19 04:47:06;;;;;;;11.07;4.65;;;;;;;26.82;100.00;98979.25;5138632;28;20064;-57
2023/08/19 04:49:32;;;;;;;7.78;5.03;;;;;;;27.25;100.00;99064.28;5138175;28;20565;-62
2023/08/19 04:51:58;;;;;;;7.25;5.45;;;;;;;26.85;100.00;99065.47;5138488;28;20384;-62
2023/08/19 04:54:24;;;;;;;5.55;4.72;;;;;;;26.89;100.00;99063.25;5138069;28;20138;-64
2023/08/19 04:56:51;;;;;;;11.48;4.95;;;;;;;26.46;100.00;99000.72;5138566;28;20047;-58
2023/08/19 04:59:17;;;;;;;4.68;4.00;;;;;;;26.33;100.00;98998.13;5137934;28;20069;-58
2023/08/19 05:01:43;;;;;;;7.30;4.50;;;;;;;25.86;100.00;98864.81;5138458;28;20312;-55
2023/08/19 05:04:09;;;;;;;6.57;3.97;;;;;;;27.05;100.00;99009.38;5138208;28;20097;-57
2023/08/19 05:06:36;;;;;;;4.10;3.70;;;;;;;27.29;100.00;99102.25;5138090;28;20082;-60
2023/08/19 05:09:02;;;;;;;7.32;4.20;;;;;;;27.35;100.00;99083.41;5138159;27;20090;-57
2023/08/19 05:11:28;;;;;;;6.43;3.78;;;;;;;27.45;100.00;99067.22;5137946;28;20075;-59
2023/08/19 05:13:54;;;;;;;4.43;4.03;;;;;;;26.58;100.00;99030.66;5137988;28;20385;-60
2023/08/19 05:16:20;;;;;;;4.63;3.65;;;;;;;27.69;100.00;99110.19;5137450;27;20047;-56
2023/08/19 05:19:03;;;;;;;6.43;3.90;;;;;;;27.90;100.00;99177.94;5138078;28;20083;-59
2023/08/19 05:21:29;;;;;;;4.20;3.33;;;;;;;27.66;100.00;99183.59;5137664;28;20058;-60
2023/08/19 05:23:55;;;;;;;6.15;4.03;;;;;;;28.25;100.00;99247.75;5138059;28;20046;-60
2023/08/19 05:26:21;;;;;;;6.68;3.90;;;;;;;29.39;100.00;99300.75;5137648;28;20332;-59
2023/08/19 05:28:47;;;;;;;4.47;4.07;;;;;;;29.24;100.00;99348.00;5137715;28;20054;-60
2023/08/19 05:31:13;;;;;;;4.72;4.20;;;;;;;29.19;100.00;99348.69;5137584;28;20074;-57
2023/08/19 05:33:39;;;;;;;6.15;3.88;;;;;;;29.78;100.00;99348.56;5137651;28;20142;-59
2023/08/19 05:36:05;;;;;;;4.65;3.92;;;;;;;29.71;100.00;99330.00;5137735;28;20108;-59
2023/08/19 05:38:31;;;;;;;5.63;4.18;;;;;;;29.95;100.00;99366.53;5137418;27;20065;-64
2023/08/19 05:40:58;;;;;;;5.22;3.80;;;;;;;29.05;100.00;99356.66;5137738;28;20316;-63
2023/08/19 05:43:23;;;;;;;6.55;3.70;;;;;;;30.35;100.00;99403.81;5137327;28;20057;-64
2023/08/19 05:45:49;;;;;;;5.63;4.10;;;;;;;29.80;100.00;99368.66;5137724;28;20138;-63
2023/08/19 05:48:15;;;;;;;3.80;3.50;;;;;;;30.01;100.00;99366.63;5137378;28;20055;-60
2023/08/19 05:50:41;;;;;;;10.38;4.00;;;;;;;29.83;100.00;99393.09;5137635;28;20051;-60
2023/08/19 05:53:08;;;;;;;4.70;3.70;;;;;;;31.17;100.00;99439.22;5137291;28;20047;-61
2023/08/19 05:55:34;;;;;;;6.22;3.90;;;;;;;29.46;100.00;99404.06;5137665;28;20436;-58
2023/08/19 05:58:00;;;;;;;4.00;3.53;;;;;;;28.31;100.00;99302.19;5137248;28;20043;-57
2023/08/19 06:00:26;;;;;;;5.50;3.97;;;;;;;30.57;100.00;99394.84;5137305;28;20142;-55
2023/08/19 06:02:52;;;;;;;5.22;3.80;;;;;;;31.10;100.00;99453.84;5137363;28;20128;-56
2023/08/19 06:05:18;;;;;;;4.90;4.22;;;;;;;30.63;100.00;99444.56;5136967;28;20404;-58
2023/08/19 06:07:44;;;;;;;8.27;3.53;;;;;;;30.67;100.00;99450.78;5137238;27;20057;-59
2023/08/19 06:10:10;;;;;;;8.65;3.92;;;;;;;31.39;100.00;99478.34;5137113;28;20047;-59
2023/08/19 06:12:36;;;;;;;5.40;4.20;;;;;;;30.91;100.00;99472.41;5137158;28;20419;-56
2023/08/19 06:15:03;;;;;;;3.92;3.63;;;;;;;32.23;100.00;99492.41;5136949;28;20103;-57
2023/08/19 06:17:30;;;;;;;5.68;3.97;;;;;;;32.00;100.00;99500.00;5137261;28;20150;-57
2023/08/19 06:19:55;;;;;;;6.57;4.03;;;;;;;31.72;100.00;99494.06;5136716;28;20428;-61
2023/08/19 06:22:21;;;;;;;4.10;3.70;;;;;;;31.91;100.00;99497.34;5137135;28;20062;-63
2023/08/19 06:24:47;;;;;;;8.13;3.67;;;;;;;32.16;100.00;99492.88;5136790;28;20120;-61
2023/08/19 06:27:13;;;;;;;5.43;3.50;;;;;;;32.28;100.00;99500.16;5138035;27;20138;-58
2023/08/19 06:29:39;;;;;;;5.13;3.47;;;;;;;32.60;100.00;99505.78;5140382;28;20055;-56
2023/08/19 06:32:07;;;;;;;4.75;3.67;;;;;;;33.14;100.00;99525.63;5140613;28;20325;-59
2023/08/19 06:34:34;;;;;;;4.47;3.80;;;;;;;33.02;100.00;99536.19;5140378;28;20047;-62
2023/08/19 06:37:03;;;;;;;3.50;3.20;;;;;;;32.53;100.00;99517.63;5140497;28;20359;-60
2023/08/19 06:39:33;;;;;;;4.45;3.40;;;;;;;33.94;100.00;99538.66;5140304;27;20115;-54
2023/08/19 06:42:01;;;;;;;7.13;3.38;;;;;;;33.68;100.00;99548.22;5140276;28;20130;-61
2023/08/19 06:44:29;;;;;;;3.78;3.30;;;;;;;33.68;100.00;99553.13;5140616;28;20425;-59
2023/08/19 06:46:56;;;;;;;5.78;3.30;;;;;;;33.40;100.00;99553.84;5140226;28;20119;-59
2023/08/19 06:49:24;;;;;;;5.28;3.47;;;;;;;33.45;100.00;99552.28;5140649;28;20065;-56
2023/08/19 06:51:50;;;;;;;3.83;3.25;;;;;;;33.18;100.00;99548.09;5140044;28;20051;-57
2023/08/19 06:54:17;;;;;;;4.90;2.78;;;;;;;33.59;100.00;99562.69;5140025;28;20426;-54
2023/08/19 06:56:50;;;;;;;3.38;3.08;;;;;;;33.58;100.00;99555.44;5140281;28;20130;-59
2023/08/19 06:59:20;;;;;;;5.63;3.35;;;;;;;33.83;100.00;99555.72;5139745;28;20336;-58
2023/08/19 07:01:50;;;;;;;3.38;2.40;;;;;;;33.39;100.00;99549.44;5140299;28;20047;-63
2023/08/19 07:04:20;;;;;;;4.55;3.25;;;;;;;34.09;100.00;99561.16;5139844;28;20496;-63
2023/08/19 07:06:47;;;;;;;5.13;3.20;;;;;;;33.36;100.00;99552.53;5140119;28;20046;-55
2023/08/19 07:09:14;;;;;;;7.15;3.20;;;;;;;34.59;100.00;99568.84;5139821;27;20322;-59
2023/08/19 07:11:40;;;;;;;3.83;2.83;;;;;;;34.62;96.90;99579.22;5140125;28;20365;-60
2023/08/19 07:14:07;;;;;;;6.05;2.92;;;;;;;33.19;100.00;99570.31;5140178;28;20047;-62
2023/08/19 07:16:34;;;;;;;5.68;3.10;;;;;;;33.33;100.00;99556.41;5140217;28;20059;-58
2023/08/19 07:19:03;;;;;;;6.43;3.20;;;;;;;33.80;100.00;99568.13;5139475;28;20134;-64
2023/08/19 07:21:31;;;;;;;8.70;3.22;;;;;;;33.38;100.00;99558.47;5139852;28;20077;-61
2023/08/19 07:23:58;;;;;;;6.28;3.17;;;;;;;34.59;100.00;99575.34;5139892;28;20366;-63
2023/08/19 07:26:26;;;;;;;2.88;2.67;;;;;;;35.08;97.93;99572.84;5139901;28;20078;-58
2023/08/19 07:28:53;;;;;;;3.92;2.67;;;;;;;33.81;100.00;99566.84;5139718;28;20420;-58
2023/08/19 07:31:20;;;;;;;7.20;2.80;;;;;;;34.64;95.01;99582.31;5139560;28;20138;-59
2023/08/19 07:33:46;;;;;;;3.45;3.08;;;;;;;34.04;97.83;99584.72;5139844;28;20101;-58
2023/08/19 07:36:12;;;;;;;4.55;2.95;;;;;;;34.11;98.44;99582.13;5139330;28;20413;-59
2023/08/19 07:38:38;;;;;;;4.65;3.22;;;;;;;35.27;96.36;99589.34;5139558;27;20051;-62
2023/08/19 07:41:05;;;;;;;8.05;3.33;;;;;;;34.38;94.89;99591.91;5139198;28;20051;-62
2023/08/19 07:43:31;;;;;;;7.88;2.83;;;;;;;34.61;97.59;99583.38;5139682;28;20043;-62
2023/08/19 07:45:57;;;;;;;5.35;2.65;;;;;;;33.17;100.00;99584.25;5139343;28;20062;-62
2023/08/19 07:48:22;;;;;;;3.72;3.10;;;;;;;33.88;100.00;99589.06;5139250;28;20061;-63
2023/08/19 07:50:48;;;;;;;6.03;3.28;;;;;;;33.96;98.42;99587.28;5139357;28;20061;-60
2023/08/19 07:53:14;;;;;;;6.43;2.92;;;;;;;33.82;100.00;99582.59;5139208;28;20043;-59
2023/08/19 07:55:41;;;;;;;5.03;2.83;;;;;;;34.39;98.68;99582.09;5139248;28;20078;-54
2023/08/19 07:58:07;;;;;;;4.35;3.30;;;;;;;33.49;100.00;99572.75;5139060;28;20146;-60
2023/08/19 08:00:33;;;;;;;5.20;2.90;;;;;;;34.21;98.29;99585.47;5139373;28;20047;-56
2023/08/19 08:02:59;;;;;;;8.02;3.08;;;;;;;33.75;96.29;99583.88;5139092;28;20193;-54
2023/08/19 08:05:25;;;;;;;3.38;3.03;;;;;;;34.96;95.01;99585.59;5139175;28;20138;-55
2023/08/19 08:07:51;;;;;;;7.07;3.00;;;;;;;34.34;94.57;99590.63;5139142;27;20078;-57
2023/08/19 08:10:17;;;;;;;4.95;2.65;;;;;;;35.24;90.22;99588.31;5139281;28;20138;-59
2023/08/19 08:12:43;;;;;;;4.72;2.97;;;;;;;35.18;92.63;99592.50;5138735;28;20332;-63
2023/08/19 08:15:10;;;;;;;8.90;3.47;;;;;;;35.58;90.72;99588.91;5139176;28;20084;-60
2023/08/19 08:17:36;;;;;;;5.90;2.90;;;;;;;35.30;93.19;99591.91;5138724;28;20078;-60
2023/08/19 08:20:02;;;;;;;3.53;2.63;;;;;;;36.40;85.88;99600.75;5138773;28;20147;-63
2023/08/19 08:22:28;;;;;;;7.10;2.92;;;;;;;35.61;91.51;99586.31;5138846;28;20379;-56
2023/08/19 08:24:55;;;;;;;6.20;3.35;;;;;;;34.50;95.35;99589.84;5138844;28;20051;-60
2023/08/19 08:27:21;;;;;;;5.50;2.80;;;;;;;35.78;91.51;99592.69;5138683;28;20413;-59
2023/08/19 08:29:47;;;;;;;4.82;2.80;;;;;;;35.21;89.45;99595.06;5138493;28;20082;-60
2023/08/19 08:32:14;;;;;;;7.75;3.17;;;;;;;35.51;83.98;99600.09;5138898;28;20090;-56
2023/08/19 08:34:40;;;;;;;6.22;2.60;;;;;;;34.06;90.29;99591.44;5138521;28;20061;-56
2023/08/19 08:37:06;;;;;;;7.38;2.50;;;;;;;35.24;87.56;99596.88;5138731;28;20379;-58
2023/08/19 08:39:32;;;;;;;3.92;2.80;;;;;;;35.40;85.19;99595.25;5138300;27;20146;-60
2023/08/19 08:41:59;;;;;;;4.53;2.40;;;;;;;36.07;77.23;99608.31;5138835;28;20074;-61
2023/08/19 08:44:26;;;;;;;2.78;2.20;;;;;;;36.09;77.36;99593.50;5138203;28;20145;-53
2023/08/19 08:46:54;;;;;;;3.95;2.22;;;;;;;35.17;78.12;99593.81;5138462;28;20055;-62
2023/08/19 08:49:20;;;;;;;4.25;2.50;;;;;;;36.31;76.61;99595.38;5138373;27;20146;-61
2023/08/19 08:51:47;;;;;;;2.95;2.65;;;;;;;35.42;73.95;99591.84;5138177;28;20141;-62
2023/08/19 08:54:13;;;;;;;4.93;2.65;;;;;;;35.62;83.65;99587.88;5138519;28;20089;-63
2023/08/19 08:56:39;;;;;;;6.55;2.50;;;;;;;35.06;84.27;99574.69;5138171;28;20428;-63
2023/08/19 08:59:05;;;;;;;4.75;2.30;;;;;;;35.56;80.08;99583.00;5138271;28;20062;-62
2023/08/19 09:01:34;;;;;;;7.53;3.05;;;;;;;35.48;83.57;99581.19;5138287;28;20417;-60
2023/08/19 09:04:04;;;;;;;4.00;2.30;;;;;;;36.18;77.76;99582.50;5138608;28;20145;-62
2023/08/19 09:06:31;;;;;;;8.63;2.67;;;;;;;35.29;82.56;99575.34;5137961;28;20138;-61
2023/08/19 09:09:01;;;;;;;4.70;2.58;;;;;;;35.78;74.74;99584.88;5138172;27;20137;-57
2023/08/19 09:11:28;;;;;;;3.22;2.63;;;;;;;34.66;79.52;99574.81;5137690;28;20108;-60
2023/08/19 09:14:00;;;;;;;7.72;2.75;;;;;;;35.88;79.59;99573.16;5138234;28;20101;-57
2023/08/19 09:16:26;;;;;;;6.55;3.00;;;;;;;35.70;82.77;99563.97;5138043;28;20050;-63
2023/08/19 09:18:52;;;;;;;3.63;2.65;;;;;;;34.37;85.08;99556.22;5137643;28;20059;-60
2023/08/19 09:21:19;;;;;;;4.78;2.53;;;;;;;34.33;82.72;99558.56;5138107;28;20054;-57
2023/08/19 09:23:45;;;;;;;4.82;3.00;;;;;;;34.43;90.14;99556.22;5137849;28;20075;-62
2023/08/19 09:26:11;;;;;;;6.45;2.92;;;;;;;35.52;90.31;99551.13;5138072;28;20195;-63
2023/08/19 09:28:38;;;;;;;5.07;2.70;;;;;;;36.47;82.17;99555.25;5137656;28;20096;-60
2023/08/19 09:31:17;;;;;;;7.88;3.25;;;;;;;36.28;77.67;99558.03;5137953;28;20043;-57
2023/08/19 09:33:43;;;;;;;6.88;2.70;;;;;;;35.11;85.88;99540.47;5137487;28;20054;-64
2023/08/19 09:36:09;;;;;;;4.22;2.75;;;;;;;35.02;88.94;99537.94;5137951;28;20047;-61
2023/08/19 09:38:35;;;;;;;5.43;2.50;;;;;;;35.06;90.02;99535.59;5137264;27;20374;-62
2023/08/19 09:41:03;;;;;;;4.45;2.78;;;;;;;35.28;87.50;99543.22;5137674;28;20047;-57
2023/08/19 09:43:29;;;;;;;5.47;2.83;;;;;;;33.98;95.33;99527.78;5137715;28;20358;-58
2023/08/19 09:45:57;;;;;;;15.60;3.08;;;;;;;35.13;91.96;99532.16;5137328;28;20047;-56
2023/08/19 09:48:23;;;;;;;5.00;3.30;;;;;;;35.33;82.82;99533.09;5137463;28;20057;-57
2023/08/19 09:50:49;;;;;;;3.92;2.90;;;;;;;33.61;94.99;99525.22;5137419;28;20047;-55
2023/08/19 09:53:16;;;;;;;6.30;3.00;;;;;;;33.48;96.66;99514.31;5137458;28;20075;-56
2023/08/19 09:55:45;;;;;;;8.32;2.80;;;;;;;33.40;100.00;99516.91;5137143;28;20452;-58
2023/08/19 09:58:12;;;;;;;6.55;2.80;;;;;;;31.96;100.00;99499.47;5137557;28;20085;-59
2023/08/19 10:00:39;;;;;;;3.85;2.83;;;;;;;32.93;100.00;99501.53;5137127;28;20070;-63
2023/08/19 10:03:05;;;;;;;4.93;3.30;;;;;;;34.07;100.00;99515.41;5136494;27;20047;-61
2023/08/19 10:05:35;;;;;;;4.45;3.03;;;;;;;33.50;100.00;99512.53;5137033;28;20146;-56
2023/08/19 10:08:06;;;;;;;3.47;3.13;;;;;;;33.63;100.00;99502.75;5136959;27;20405;-57
2023/08/19 10:10:37;;;;;;;3.28;3.00;;;;;;;33.86;98.58;99512.81;5137332;28;20078;-61
2023/08/19 10:13:03;;;;;;;8.15;3.03;;;;;;;33.56;100.00;99508.94;5136833;28;20047;-63
2023/08/19 10:15:33;;;;;;;3.45;3.10;;;;;;;33.96;100.00;99516.94;5137167;28;20346;-61
2023/08/19 10:18:07;;;;;;;5.20;3.38;;;;;;;33.79;100.00;99513.34;5136912;28;20416;-58
2023/08/19 10:20:34;;;;;;;4.25;3.20;;;;;;;32.92;100.00;99506.41;5137376;28;20388;-60
2023/08/19 10:23:05;;;;;;;4.35;3.85;;;;;;;31.84;100.00;99495.72;5136954;28;20133;-61
2023/08/19 10:25:31;;;;;;;5.13;4.13;;;;;;;32.75;100.00;99489.31;5137343;28;20075;-56
2023/08/19 10:28:10;;;;;;;4.03;3.50;;;;;;;33.44;100.00;99494.69;5136762;28;20096;-58
2023/08/19 10:30:36;;;;;;;4.07;3.00;;;;;;;33.09;100.00;99509.34;5136721;28;20055;-57
2023/08/19 10:33:05;;;;;;;6.93;3.28;;;;;;;32.84;98.87;99508.19;5136820;28;20324;-55
2023/08/19 10:35:58;;;;;;;5.50;3.25;;;;;;;33.44;99.57;99493.91;5136778;28;20321;-56
2023/08/19 10:38:24;;;;;;;4.72;2.80;;;;;;;34.86;89.87;99510.28;5136974;27;20043;-58
2023/08/19 10:41:01;;;;;;;5.50;2.72;;;;;;;34.67;85.66;99510.88;5136729;28;20058;-57
2023/08/19 10:43:27;;;;;;;4.25;2.75;;;;;;;34.82;90.81;99501.22;5137086;28;20058;-61
2023/08/19 10:45:57;;;;;;;4.68;2.92;;;;;;;34.57;82.81;99518.16;5136536;28;20369;-58
2023/08/19 10:48:31;;;;;;;3.28;2.70;;;;;;;35.14;81.13;99510.16;5136837;28;20095;-60
2023/08/19 10:50:57;;;;;;;3.28;2.55;;;;;;;32.93;87.33;99513.66;5136588;28;20424;-63
2023/08/19 10:53:24;;;;;;;3.72;2.55;;;;;;;34.27;82.72;99505.78;5136677;28;20082;-61
2023/08/19 10:55:51;;;;;;;3.85;2.88;;;;;;;34.72;80.30;99505.66;5136577;28;20066;-61
2023/08/19 10:58:17;;;;;;;5.35;2.80;;;;;;;34.58;84.56;99499.00;5136533;28;20138;-62
2023/08/19 11:00:44;;;;;;;3.85;2.80;;;;;;;33.41;89.10;99497.78;5136789;28;20047;-59
2023/08/19 11:03:11;;;;;;;5.38;2.67;;;;;;;34.05;84.55;99489.53;5136394;28;20476;-56
2023/08/19 11:05:38;;;;;;;4.22;2.45;;;;;;;33.33;90.83;99482.53;5136366;28;20051;-62
2023/08/19 11:08:06;;;;;;;3.67;2.60;;;;;;;33.73;83.49;99495.50;5136291;27;20048;-58
2023/08/19 11:10:32;;;;;;;2.92;2.72;;;;;;;32.85;90.81;99483.41;5136743;28;20082;-56
2023/08/19 11:12:59;;;;;;;3.38;2.90;;;;;;;32.55;87.96;99486.66;5136465;27;20082;-58
2023/08/19 11:15:26;;;;;;;5.53;3.40;;;;;;;32.21;91.85;99480.78;5139944;28;20376;-61
2023/08/19 11:17:52;;;;;;;5.90;3.17;;;;;;;32.14;96.16;99475.59;5139926;28;20429;-57
2023/08/19 11:20:19;;;;;;;4.22;2.90;;;;;;;31.39;100.00;99471.91;5139821;28;20141;-58
2023/08/19 11:22:47;;;;;;;4.50;3.10;;;;;;;31.25;100.00;99465.03;5139851;28;20047;-59